sensor_id;sensor_type;location;lat;lon;timestamp;P1;durP1;ratioP1;P2;durP2;ratioP2
17741;SDS011;8993;51.822;-2.268;2024-03-17T00:02:26;25.52;;;4.92;;
17741;SDS011;8993;51.822;-2.268;2024-03-17T00:07:29;25.65;;;4.64;;
17741;SDS011;8993;51.822;-2.268;2024-03-17T00:12:33;25.98;;;4.24;;
17741;SDS011;8993;51.822;-2.268;2024-03-17T00:17:36;26.17;;;4.84;;
17741;SDS011;8993;51.822;-2.268;2024-03-17T00:22:40;25.85;;;4.58;;
17741;SDS011;8993;51.822;-2.268;2024-03-17T00:27:45;28.47;;;4.79;;
17741;SDS011;8993;51.822;-2.268;2024-03-17T00:32:47;29.51;;;5.58;;
17741;SDS011;8993;51.822;-2.268;2024-03-17T00:37:51;24.72;;;4.41;;
17741;SDS011;8993;51.822;-2.268;2024-03-17T00:42:54;27.55;;;4.40;;
17741;SDS011;8993;51.822;-2.268;2024-03-17T00:47:58;27.03;;;4.89;;
17741;SDS011;8993;51.822;-2.268;2024-03-17T00:53:02;22.98;;;4.52;;
17741;SDS011;8993;51.822;-2.268;2024-03-17T00:58:05;22.95;;;4.07;;
17741;SDS011;8993;51.822;-2.268;2024-03-17T01:03:09;20.06;;;3.72;;
17741;SDS011;8993;51.822;-2.268;2024-03-17T01:08:12;18.47;;;3.31;;
17741;SDS011;8993;51.822;-2.268;2024-03-17T01:13:16;17.71;;;3.37;;
17741;SDS011;8993;51.822;-2.268;2024-03-17T01:18:20;14.59;;;2.96;;
17741;SDS011;8993;51.822;-2.268;2024-03-17T01:23:23;15.37;;;3.43;;
17741;SDS011;8993;51.822;-2.268;2024-03-17T01:28:27;16.16;;;2.80;;
17741;SDS011;8993;51.822;-2.268;2024-03-17T01:33:31;17.30;;;2.67;;
17741;SDS011;8993;51.822;-2.268;2024-03-17T01:38:34;14.18;;;2.44;;
17741;SDS011;8993;51.822;-2.268;2024-03-17T01:43:38;13.01;;;2.65;;
17741;SDS011;8993;51.822;-2.268;2024-03-17T01:48:42;12.15;;;2.70;;
17741;SDS011;8993;51.822;-2.268;2024-03-17T01:53:45;13.52;;;2.39;;
17741;SDS011;8993;51.822;-2.268;2024-03-17T01:58:49;12.19;;;2.50;;
17741;SDS011;8993;51.822;-2.268;2024-03-17T02:03:52;11.52;;;1.96;;
17741;SDS011;8993;51.822;-2.268;2024-03-17T02:08:56;10.64;;;2.00;;
17741;SDS011;8993;51.822;-2.268;2024-03-17T02:14:00;10.06;;;2.00;;
17741;SDS011;8993;51.822;-2.268;2024-03-17T02:19:03;11.15;;;2.02;;
17741;SDS011;8993;51.822;-2.268;2024-03-17T02:24:07;12.16;;;2.24;;
17741;SDS011;8993;51.822;-2.268;2024-03-17T02:29:10;10.41;;;2.07;;
17741;SDS011;8993;51.822;-2.268;2024-03-17T02:34:14;11.50;;;2.19;;
17741;SDS011;8993;51.822;-2.268;2024-03-17T02:39:17;10.39;;;2.09;;
17741;SDS011;8993;51.822;-2.268;2024-03-17T02:44:21;11.22;;;2.19;;
17741;SDS011;8993;51.822;-2.268;2024-03-17T02:49:25;12.58;;;2.74;;
17741;SDS011;8993;51.822;-2.268;2024-03-17T02:54:28;11.67;;;2.89;;
17741;SDS011;8993;51.822;-2.268;2024-03-17T02:59:32;12.31;;;2.91;;
17741;SDS011;8993;51.822;-2.268;2024-03-17T03:04:36;11.48;;;2.69;;
17741;SDS011;8993;51.822;-2.268;2024-03-17T03:09:39;11.82;;;2.75;;
17741;SDS011;8993;51.822;-2.268;2024-03-17T03:14:43;11.68;;;2.73;;
17741;SDS011;8993;51.822;-2.268;2024-03-17T03:19:47;10.74;;;2.63;;
17741;SDS011;8993;51.822;-2.268;2024-03-17T03:24:51;10.68;;;2.45;;
17741;SDS011;8993;51.822;-2.268;2024-03-17T03:29:54;12.13;;;2.64;;
17741;SDS011;8993;51.822;-2.268;2024-03-17T03:34:57;9.50;;;2.52;;
17741;SDS011;8993;51.822;-2.268;2024-03-17T03:40:01;10.15;;;2.56;;
17741;SDS011;8993;51.822;-2.268;2024-03-17T03:45:06;10.25;;;2.69;;
17741;SDS011;8993;51.822;-2.268;2024-03-17T03:50:08;10.68;;;2.55;;
17741;SDS011;8993;51.822;-2.268;2024-03-17T03:55:12;10.09;;;2.68;;
17741;SDS011;8993;51.822;-2.268;2024-03-17T04:00:15;10.01;;;2.67;;
17741;SDS011;8993;51.822;-2.268;2024-03-17T04:05:19;12.22;;;2.96;;
17741;SDS011;8993;51.822;-2.268;2024-03-17T04:10:22;10.90;;;2.84;;
17741;SDS011;8993;51.822;-2.268;2024-03-17T04:15:26;11.77;;;2.62;;
17741;SDS011;8993;51.822;-2.268;2024-03-17T04:20:30;10.44;;;2.88;;
17741;SDS011;8993;51.822;-2.268;2024-03-17T04:25:33;10.33;;;2.65;;
17741;SDS011;8993;51.822;-2.268;2024-03-17T04:30:37;9.94;;;2.73;;
17741;SDS011;8993;51.822;-2.268;2024-03-17T04:35:40;10.76;;;2.79;;
17741;SDS011;8993;51.822;-2.268;2024-03-17T04:40:44;10.25;;;2.72;;
17741;SDS011;8993;51.822;-2.268;2024-03-17T04:45:48;12.78;;;3.21;;
17741;SDS011;8993;51.822;-2.268;2024-03-17T04:50:51;12.80;;;3.38;;
17741;SDS011;8993;51.822;-2.268;2024-03-17T04:56:03;10.74;;;3.33;;
17741;SDS011;8993;51.822;-2.268;2024-03-17T05:01:03;12.73;;;3.27;;
17741;SDS011;8993;51.822;-2.268;2024-03-17T05:06:02;13.15;;;3.36;;
17741;SDS011;8993;51.822;-2.268;2024-03-17T05:11:06;13.09;;;3.45;;
17741;SDS011;8993;51.822;-2.268;2024-03-17T05:16:09;13.43;;;3.44;;
17741;SDS011;8993;51.822;-2.268;2024-03-17T05:21:13;11.89;;;3.52;;
17741;SDS011;8993;51.822;-2.268;2024-03-17T05:26:16;12.51;;;3.71;;
17741;SDS011;8993;51.822;-2.268;2024-03-17T05:31:20;12.37;;;3.44;;
17741;SDS011;8993;51.822;-2.268;2024-03-17T05:36:24;13.81;;;3.83;;
17741;SDS011;8993;51.822;-2.268;2024-03-17T05:41:27;11.97;;;3.43;;
17741;SDS011;8993;51.822;-2.268;2024-03-17T05:46:31;11.61;;;3.16;;
17741;SDS011;8993;51.822;-2.268;2024-03-17T05:51:35;12.14;;;3.24;;
17741;SDS011;8993;51.822;-2.268;2024-03-17T05:56:38;10.05;;;2.90;;
17741;SDS011;8993;51.822;-2.268;2024-03-17T06:01:42;9.59;;;2.79;;
17741;SDS011;8993;51.822;-2.268;2024-03-17T06:06:45;11.25;;;2.98;;
17741;SDS011;8993;51.822;-2.268;2024-03-17T06:11:49;10.43;;;2.93;;
17741;SDS011;8993;51.822;-2.268;2024-03-17T06:16:53;9.55;;;2.59;;
17741;SDS011;8993;51.822;-2.268;2024-03-17T06:21:56;10.97;;;2.86;;
17741;SDS011;8993;51.822;-2.268;2024-03-17T06:27:00;10.76;;;2.98;;
17741;SDS011;8993;51.822;-2.268;2024-03-17T06:32:04;10.55;;;2.81;;
17741;SDS011;8993;51.822;-2.268;2024-03-17T06:37:08;11.37;;;3.13;;
17741;SDS011;8993;51.822;-2.268;2024-03-17T06:42:11;10.77;;;2.65;;
17741;SDS011;8993;51.822;-2.268;2024-03-17T06:47:15;10.27;;;2.54;;
17741;SDS011;8993;51.822;-2.268;2024-03-17T06:52:19;9.72;;;2.51;;
17741;SDS011;8993;51.822;-2.268;2024-03-17T06:57:22;9.52;;;2.21;;
17741;SDS011;8993;51.822;-2.268;2024-03-17T07:02:26;8.43;;;2.10;;
17741;SDS011;8993;51.822;-2.268;2024-03-17T07:07:30;7.03;;;1.52;;
17741;SDS011;8993;51.822;-2.268;2024-03-17T07:12:33;7.52;;;1.40;;
17741;SDS011;8993;51.822;-2.268;2024-03-17T07:17:37;6.04;;;1.33;;
17741;SDS011;8993;51.822;-2.268;2024-03-17T07:22:41;6.67;;;1.50;;
17741;SDS011;8993;51.822;-2.268;2024-03-17T07:27:45;5.15;;;1.16;;
17741;SDS011;8993;51.822;-2.268;2024-03-17T07:32:48;6.01;;;1.29;;
17741;SDS011;8993;51.822;-2.268;2024-03-17T07:37:52;5.90;;;1.28;;
17741;SDS011;8993;51.822;-2.268;2024-03-17T07:42:56;6.34;;;1.29;;
17741;SDS011;8993;51.822;-2.268;2024-03-17T07:48:00;5.52;;;1.27;;
17741;SDS011;8993;51.822;-2.268;2024-03-17T07:53:03;6.36;;;1.24;;
17741;SDS011;8993;51.822;-2.268;2024-03-17T07:58:07;5.91;;;1.32;;
17741;SDS011;8993;51.822;-2.268;2024-03-17T08:03:10;6.46;;;1.41;;
17741;SDS011;8993;51.822;-2.268;2024-03-17T08:08:14;5.07;;;1.15;;
17741;SDS011;8993;51.822;-2.268;2024-03-17T08:13:18;5.07;;;1.02;;
17741;SDS011;8993;51.822;-2.268;2024-03-17T08:18:21;4.15;;;0.95;;
17741;SDS011;8993;51.822;-2.268;2024-03-17T08:23:25;4.44;;;0.81;;
17741;SDS011;8993;51.822;-2.268;2024-03-17T08:28:29;3.94;;;0.78;;
17741;SDS011;8993;51.822;-2.268;2024-03-17T08:33:33;2.83;;;0.71;;
17741;SDS011;8993;51.822;-2.268;2024-03-17T08:38:37;2.88;;;0.69;;
17741;SDS011;8993;51.822;-2.268;2024-03-17T08:43:40;3.47;;;0.77;;
17741;SDS011;8993;51.822;-2.268;2024-03-17T08:48:43;2.77;;;0.73;;
17741;SDS011;8993;51.822;-2.268;2024-03-17T08:53:47;2.59;;;0.66;;
17741;SDS011;8993;51.822;-2.268;2024-03-17T08:58:51;3.41;;;0.74;;
17741;SDS011;8993;51.822;-2.268;2024-03-17T09:03:54;2.74;;;0.73;;
17741;SDS011;8993;51.822;-2.268;2024-03-17T09:08:58;3.10;;;0.74;;
17741;SDS011;8993;51.822;-2.268;2024-03-17T09:14:02;2.15;;;0.56;;
17741;SDS011;8993;51.822;-2.268;2024-03-17T09:19:05;2.48;;;0.55;;
17741;SDS011;8993;51.822;-2.268;2024-03-17T09:24:09;2.92;;;0.65;;
17741;SDS011;8993;51.822;-2.268;2024-03-17T09:29:13;2.44;;;0.57;;
17741;SDS011;8993;51.822;-2.268;2024-03-17T09:34:16;3.06;;;0.64;;
17741;SDS011;8993;51.822;-2.268;2024-03-17T09:39:20;3.19;;;0.81;;
17741;SDS011;8993;51.822;-2.268;2024-03-17T09:44:24;2.45;;;0.64;;
17741;SDS011;8993;51.822;-2.268;2024-03-17T09:49:27;2.85;;;0.63;;
17741;SDS011;8993;51.822;-2.268;2024-03-17T09:54:31;2.39;;;0.53;;
17741;SDS011;8993;51.822;-2.268;2024-03-17T09:59:34;2.47;;;0.61;;
17741;SDS011;8993;51.822;-2.268;2024-03-17T10:04:38;2.87;;;0.73;;
17741;SDS011;8993;51.822;-2.268;2024-03-17T10:09:41;2.91;;;0.65;;
17741;SDS011;8993;51.822;-2.268;2024-03-17T10:14:45;2.90;;;0.65;;
17741;SDS011;8993;51.822;-2.268;2024-03-17T10:19:49;2.15;;;0.54;;
17741;SDS011;8993;51.822;-2.268;2024-03-17T10:24:58;2.36;;;0.59;;
17741;SDS011;8993;51.822;-2.268;2024-03-17T10:29:56;3.34;;;0.72;;
17741;SDS011;8993;51.822;-2.268;2024-03-17T10:34:59;3.45;;;0.70;;
17741;SDS011;8993;51.822;-2.268;2024-03-17T10:40:03;3.18;;;0.73;;
17741;SDS011;8993;51.822;-2.268;2024-03-17T10:45:08;2.49;;;0.63;;
17741;SDS011;8993;51.822;-2.268;2024-03-17T10:50:12;3.31;;;0.74;;
17741;SDS011;8993;51.822;-2.268;2024-03-17T10:55:19;2.43;;;0.50;;
17741;SDS011;8993;51.822;-2.268;2024-03-17T11:00:18;2.78;;;0.62;;
17741;SDS011;8993;51.822;-2.268;2024-03-17T11:05:22;3.25;;;0.63;;
17741;SDS011;8993;51.822;-2.268;2024-03-17T11:10:26;2.70;;;0.55;;
17741;SDS011;8993;51.822;-2.268;2024-03-17T11:15:37;3.46;;;0.57;;
17741;SDS011;8993;51.822;-2.268;2024-03-17T11:20:32;2.69;;;0.54;;
17741;SDS011;8993;51.822;-2.268;2024-03-17T11:25:37;3.19;;;0.61;;
17741;SDS011;8993;51.822;-2.268;2024-03-17T11:30:42;2.82;;;0.56;;
17741;SDS011;8993;51.822;-2.268;2024-03-17T11:35:43;3.78;;;0.55;;
17741;SDS011;8993;51.822;-2.268;2024-03-17T11:40:46;2.09;;;0.48;;
17741;SDS011;8993;51.822;-2.268;2024-03-17T11:45:54;1.69;;;0.38;;
17741;SDS011;8993;51.822;-2.268;2024-03-17T11:50:53;1.73;;;0.43;;
17741;SDS011;8993;51.822;-2.268;2024-03-17T11:55:57;3.11;;;0.65;;
17741;SDS011;8993;51.822;-2.268;2024-03-17T12:01:01;2.50;;;0.56;;
17741;SDS011;8993;51.822;-2.268;2024-03-17T12:06:05;4.96;;;0.79;;
17741;SDS011;8993;51.822;-2.268;2024-03-17T12:11:15;6.23;;;0.97;;
17741;SDS011;8993;51.822;-2.268;2024-03-17T12:16:12;7.19;;;1.05;;
17741;SDS011;8993;51.822;-2.268;2024-03-17T12:21:15;7.62;;;1.15;;
17741;SDS011;8993;51.822;-2.268;2024-03-17T12:26:19;7.32;;;1.15;;
17741;SDS011;8993;51.822;-2.268;2024-03-17T12:31:23;7.02;;;1.02;;
17741;SDS011;8993;51.822;-2.268;2024-03-17T12:36:26;6.61;;;1.13;;
17741;SDS011;8993;51.822;-2.268;2024-03-17T12:41:30;9.30;;;1.33;;
17741;SDS011;8993;51.822;-2.268;2024-03-17T12:46:34;9.81;;;1.41;;
17741;SDS011;8993;51.822;-2.268;2024-03-17T12:51:37;8.67;;;1.17;;
17741;SDS011;8993;51.822;-2.268;2024-03-17T12:56:41;7.88;;;1.34;;
17741;SDS011;8993;51.822;-2.268;2024-03-17T13:01:45;8.91;;;1.47;;
17741;SDS011;8993;51.822;-2.268;2024-03-17T13:06:48;11.18;;;1.60;;
17741;SDS011;8993;51.822;-2.268;2024-03-17T13:11:52;9.88;;;1.50;;
17741;SDS011;8993;51.822;-2.268;2024-03-17T13:16:55;12.45;;;1.80;;
17741;SDS011;8993;51.822;-2.268;2024-03-17T13:21:59;11.17;;;1.69;;
17741;SDS011;8993;51.822;-2.268;2024-03-17T13:27:03;12.51;;;1.82;;
17741;SDS011;8993;51.822;-2.268;2024-03-17T13:32:07;14.12;;;2.26;;
17741;SDS011;8993;51.822;-2.268;2024-03-17T13:37:10;13.97;;;1.93;;
17741;SDS011;8993;51.822;-2.268;2024-03-17T13:42:14;13.22;;;1.99;;
17741;SDS011;8993;51.822;-2.268;2024-03-17T13:47:18;14.01;;;2.23;;
17741;SDS011;8993;51.822;-2.268;2024-03-17T13:52:21;14.20;;;2.37;;
17741;SDS011;8993;51.822;-2.268;2024-03-17T13:57:25;12.59;;;1.70;;
17741;SDS011;8993;51.822;-2.268;2024-03-17T14:02:28;14.53;;;2.04;;
17741;SDS011;8993;51.822;-2.268;2024-03-17T14:07:32;13.65;;;1.80;;
17741;SDS011;8993;51.822;-2.268;2024-03-17T14:12:36;9.93;;;1.71;;
17741;SDS011;8993;51.822;-2.268;2024-03-17T14:17:40;9.81;;;1.63;;
17741;SDS011;8993;51.822;-2.268;2024-03-17T14:22:44;8.73;;;1.27;;
17741;SDS011;8993;51.822;-2.268;2024-03-17T14:27:47;5.74;;;0.97;;
17741;SDS011;8993;51.822;-2.268;2024-03-17T14:32:50;7.67;;;1.27;;
17741;SDS011;8993;51.822;-2.268;2024-03-17T14:37:54;8.31;;;1.43;;
17741;SDS011;8993;51.822;-2.268;2024-03-17T14:42:58;9.06;;;1.41;;
17741;SDS011;8993;51.822;-2.268;2024-03-17T14:48:02;7.96;;;1.18;;
17741;SDS011;8993;51.822;-2.268;2024-03-17T14:53:05;8.57;;;1.25;;
17741;SDS011;8993;51.822;-2.268;2024-03-17T14:58:09;8.07;;;1.07;;
17741;SDS011;8993;51.822;-2.268;2024-03-17T15:03:13;7.33;;;1.22;;
17741;SDS011;8993;51.822;-2.268;2024-03-17T15:08:16;6.13;;;1.03;;
17741;SDS011;8993;51.822;-2.268;2024-03-17T15:13:20;6.58;;;1.05;;
17741;SDS011;8993;51.822;-2.268;2024-03-17T15:18:24;7.79;;;1.25;;
17741;SDS011;8993;51.822;-2.268;2024-03-17T15:23:27;7.50;;;1.05;;
17741;SDS011;8993;51.822;-2.268;2024-03-17T15:28:31;6.49;;;0.96;;
17741;SDS011;8993;51.822;-2.268;2024-03-17T15:33:35;6.08;;;1.11;;
17741;SDS011;8993;51.822;-2.268;2024-03-17T15:38:38;10.05;;;1.42;;
17741;SDS011;8993;51.822;-2.268;2024-03-17T15:43:42;8.31;;;1.27;;
17741;SDS011;8993;51.822;-2.268;2024-03-17T15:48:46;8.54;;;1.26;;
17741;SDS011;8993;51.822;-2.268;2024-03-17T15:53:49;8.61;;;1.19;;
17741;SDS011;8993;51.822;-2.268;2024-03-17T15:58:53;9.62;;;1.53;;
17741;SDS011;8993;51.822;-2.268;2024-03-17T16:03:57;10.33;;;1.36;;
17741;SDS011;8993;51.822;-2.268;2024-03-17T16:09:00;8.38;;;1.23;;
17741;SDS011;8993;51.822;-2.268;2024-03-17T16:14:04;10.87;;;1.48;;
17741;SDS011;8993;51.822;-2.268;2024-03-17T16:19:07;9.67;;;1.67;;
17741;SDS011;8993;51.822;-2.268;2024-03-17T16:24:11;11.14;;;1.57;;
17741;SDS011;8993;51.822;-2.268;2024-03-17T16:29:15;11.59;;;1.69;;
17741;SDS011;8993;51.822;-2.268;2024-03-17T16:34:18;10.82;;;1.89;;
17741;SDS011;8993;51.822;-2.268;2024-03-17T16:39:22;9.62;;;1.47;;
17741;SDS011;8993;51.822;-2.268;2024-03-17T16:44:27;11.18;;;1.78;;
17741;SDS011;8993;51.822;-2.268;2024-03-17T16:49:29;10.76;;;1.72;;
17741;SDS011;8993;51.822;-2.268;2024-03-17T16:54:33;12.75;;;1.78;;
17741;SDS011;8993;51.822;-2.268;2024-03-17T16:59:37;10.75;;;1.52;;
17741;SDS011;8993;51.822;-2.268;2024-03-17T17:04:40;13.91;;;1.75;;
17741;SDS011;8993;51.822;-2.268;2024-03-17T17:09:44;12.03;;;1.68;;
17741;SDS011;8993;51.822;-2.268;2024-03-17T17:14:48;10.23;;;1.64;;
17741;SDS011;8993;51.822;-2.268;2024-03-17T17:19:53;11.87;;;1.67;;
17741;SDS011;8993;51.822;-2.268;2024-03-17T17:24:55;14.00;;;1.75;;
17741;SDS011;8993;51.822;-2.268;2024-03-17T17:29:59;13.03;;;1.97;;
17741;SDS011;8993;51.822;-2.268;2024-03-17T17:35:02;13.22;;;1.86;;
17741;SDS011;8993;51.822;-2.268;2024-03-17T17:40:06;14.20;;;2.22;;
17741;SDS011;8993;51.822;-2.268;2024-03-17T17:45:10;13.59;;;2.14;;
17741;SDS011;8993;51.822;-2.268;2024-03-17T17:50:14;12.89;;;2.30;;
17741;SDS011;8993;51.822;-2.268;2024-03-17T17:55:17;14.14;;;2.17;;
17741;SDS011;8993;51.822;-2.268;2024-03-17T18:00:21;13.90;;;2.53;;
17741;SDS011;8993;51.822;-2.268;2024-03-17T18:05:25;15.31;;;2.39;;
17741;SDS011;8993;51.822;-2.268;2024-03-17T18:10:28;14.15;;;2.31;;
17741;SDS011;8993;51.822;-2.268;2024-03-17T18:15:32;13.93;;;1.98;;
17741;SDS011;8993;51.822;-2.268;2024-03-17T18:20:36;14.83;;;2.39;;
17741;SDS011;8993;51.822;-2.268;2024-03-17T18:25:40;18.51;;;2.42;;
17741;SDS011;8993;51.822;-2.268;2024-03-17T18:30:43;16.12;;;2.24;;
17741;SDS011;8993;51.822;-2.268;2024-03-17T18:35:47;14.92;;;2.27;;
17741;SDS011;8993;51.822;-2.268;2024-03-17T18:40:58;13.22;;;2.00;;
17741;SDS011;8993;51.822;-2.268;2024-03-17T18:45:54;15.38;;;2.22;;
17741;SDS011;8993;51.822;-2.268;2024-03-17T18:50:58;15.58;;;2.32;;
17741;SDS011;8993;51.822;-2.268;2024-03-17T18:56:02;15.38;;;2.16;;
17741;SDS011;8993;51.822;-2.268;2024-03-17T19:01:05;17.09;;;2.22;;
17741;SDS011;8993;51.822;-2.268;2024-03-17T19:06:09;17.47;;;2.69;;
17741;SDS011;8993;51.822;-2.268;2024-03-17T19:11:13;16.97;;;2.60;;
17741;SDS011;8993;51.822;-2.268;2024-03-17T19:16:16;17.28;;;2.85;;
17741;SDS011;8993;51.822;-2.268;2024-03-17T19:21:20;17.68;;;2.39;;
17741;SDS011;8993;51.822;-2.268;2024-03-17T19:26:24;19.68;;;2.82;;
17741;SDS011;8993;51.822;-2.268;2024-03-17T19:31:28;15.87;;;2.36;;
17741;SDS011;8993;51.822;-2.268;2024-03-17T19:36:31;20.06;;;2.97;;
17741;SDS011;8993;51.822;-2.268;2024-03-17T19:41:35;18.18;;;2.63;;
17741;SDS011;8993;51.822;-2.268;2024-03-17T19:46:38;21.96;;;3.18;;
17741;SDS011;8993;51.822;-2.268;2024-03-17T19:51:42;21.62;;;2.82;;
17741;SDS011;8993;51.822;-2.268;2024-03-17T19:56:45;18.80;;;2.69;;
17741;SDS011;8993;51.822;-2.268;2024-03-17T20:01:49;23.73;;;3.21;;
17741;SDS011;8993;51.822;-2.268;2024-03-17T20:06:53;23.71;;;3.34;;
17741;SDS011;8993;51.822;-2.268;2024-03-17T20:11:56;19.45;;;2.77;;
17741;SDS011;8993;51.822;-2.268;2024-03-17T20:17:00;21.34;;;3.26;;
17741;SDS011;8993;51.822;-2.268;2024-03-17T20:22:04;23.29;;;3.58;;
17741;SDS011;8993;51.822;-2.268;2024-03-17T20:27:07;23.77;;;3.14;;
17741;SDS011;8993;51.822;-2.268;2024-03-17T20:32:11;19.94;;;3.40;;
17741;SDS011;8993;51.822;-2.268;2024-03-17T20:37:15;19.38;;;3.18;;
17741;SDS011;8993;51.822;-2.268;2024-03-17T20:42:18;19.96;;;3.10;;
17741;SDS011;8993;51.822;-2.268;2024-03-17T20:47:22;19.70;;;2.88;;
17741;SDS011;8993;51.822;-2.268;2024-03-17T20:52:26;17.24;;;2.61;;
17741;SDS011;8993;51.822;-2.268;2024-03-17T20:57:29;17.44;;;2.73;;
17741;SDS011;8993;51.822;-2.268;2024-03-17T21:02:33;24.15;;;3.21;;
17741;SDS011;8993;51.822;-2.268;2024-03-17T21:07:37;20.31;;;3.13;;
17741;SDS011;8993;51.822;-2.268;2024-03-17T21:12:41;17.96;;;2.61;;
17741;SDS011;8993;51.822;-2.268;2024-03-17T21:17:45;18.63;;;2.67;;
17741;SDS011;8993;51.822;-2.268;2024-03-17T21:22:48;19.04;;;3.07;;
17741;SDS011;8993;51.822;-2.268;2024-03-17T21:27:52;19.83;;;2.79;;
17741;SDS011;8993;51.822;-2.268;2024-03-17T21:32:55;17.41;;;2.82;;
17741;SDS011;8993;51.822;-2.268;2024-03-17T21:37:59;21.86;;;3.28;;
17741;SDS011;8993;51.822;-2.268;2024-03-17T21:43:03;25.58;;;3.56;;
17741;SDS011;8993;51.822;-2.268;2024-03-17T21:48:07;30.34;;;4.08;;
17741;SDS011;8993;51.822;-2.268;2024-03-17T21:53:10;28.24;;;4.10;;
17741;SDS011;8993;51.822;-2.268;2024-03-17T21:58:14;25.85;;;3.54;;
17741;SDS011;8993;51.822;-2.268;2024-03-17T22:03:17;28.19;;;3.60;;
17741;SDS011;8993;51.822;-2.268;2024-03-17T22:08:21;21.91;;;3.43;;
17741;SDS011;8993;51.822;-2.268;2024-03-17T22:13:25;21.86;;;3.18;;
17741;SDS011;8993;51.822;-2.268;2024-03-17T22:18:28;29.13;;;4.16;;
17741;SDS011;8993;51.822;-2.268;2024-03-17T22:23:32;26.40;;;3.46;;
17741;SDS011;8993;51.822;-2.268;2024-03-17T22:28:36;23.47;;;3.39;;
17741;SDS011;8993;51.822;-2.268;2024-03-17T22:33:39;31.80;;;3.93;;
17741;SDS011;8993;51.822;-2.268;2024-03-17T22:38:43;19.32;;;2.96;;
17741;SDS011;8993;51.822;-2.268;2024-03-17T22:43:47;22.36;;;3.84;;
17741;SDS011;8993;51.822;-2.268;2024-03-17T22:48:50;22.60;;;3.41;;
17741;SDS011;8993;51.822;-2.268;2024-03-17T22:53:54;23.10;;;3.52;;
17741;SDS011;8993;51.822;-2.268;2024-03-17T22:58:58;30.60;;;4.00;;
17741;SDS011;8993;51.822;-2.268;2024-03-17T23:04:02;27.26;;;3.90;;
17741;SDS011;8993;51.822;-2.268;2024-03-17T23:09:05;23.75;;;4.10;;
17741;SDS011;8993;51.822;-2.268;2024-03-17T23:14:09;27.15;;;3.99;;
17741;SDS011;8993;51.822;-2.268;2024-03-17T23:19:12;24.40;;;4.06;;
17741;SDS011;8993;51.822;-2.268;2024-03-17T23:24:16;28.52;;;4.35;;
17741;SDS011;8993;51.822;-2.268;2024-03-17T23:29:20;28.19;;;4.17;;
17741;SDS011;8993;51.822;-2.268;2024-03-17T23:34:24;24.19;;;4.06;;
17741;SDS011;8993;51.822;-2.268;2024-03-17T23:39:27;29.47;;;4.17;;
17741;SDS011;8993;51.822;-2.268;2024-03-17T23:44:31;32.36;;;4.07;;
17741;SDS011;8993;51.822;-2.268;2024-03-17T23:49:35;27.81;;;3.88;;
17741;SDS011;8993;51.822;-2.268;2024-03-17T23:54:38;36.34;;;4.39;;
17741;SDS011;8993;51.822;-2.268;2024-03-17T23:59:43;28.32;;;4.10;;
